• Join FlightAware (Why Join?)
  • Login
  • US Flag 
05:43AM EDT


 

Airport Tracker/Info


-or-


 

Live Flight TrackerFlight Track Log ✈ GJS3649 ✈ 19-Oct-2013 ✈ KDAY - KORD

Flight Track Log - Related Links

Times and Time Zones

All times are in EDT time to prevent confusion due to time zone crossing. See the GJS3649 flight status page for this flight to view local times or setup timezone preferences in your user account.

Time Position Orientation Groundspeed Altitude Reporting Facility
EDT Latitude Longitude Course Direction KTS MPH feet Rate Location/Type
05:45PM 39.8975 -84.2444 341° North 158 182 1,600  Level Indianapolis Center
05:45PM 39.8922 -84.2928 262° West 188 216 3,200 1,800 Climbing Indianapolis Center
05:46PM 39.8917 -84.3064 267° West 204 235 3,500 3,900 Climbing Indianapolis Center
05:47PM 39.9372 -84.3792 309° West 235 270 8,600 3,540 Climbing Indianapolis Center
05:48PM 39.9919 -84.4189 331° Northwest 223 257 10,800 1,800 Climbing Indianapolis Center
05:49PM 40.1324 -84.6066 326° Northwest  Level Estimated
05:49PM 40.0639 -84.4739 330° Northwest 281 323 12,400  Level Indianapolis Center
05:50PM 40.2032 -84.6394 341° North  Level FlightAware Approximate
05:50PM 40.1453 -84.5364 330° Northwest 330 380 14,300  Level Indianapolis Center
05:51PM 40.2308 -84.6033 329° Northwest 350 403 16,600 2,340 Climbing Indianapolis Center
05:52PM 40.3233 -84.6725 330° Northwest 365 420 19,100 2,400 Climbing Indianapolis Center
05:53PM 40.4092 -84.7383 330° Northwest 367 422 21,500 1,380 Climbing Indianapolis Center
05:54PM 40.4983 -84.8072 330° Northwest 371 427 22,000 240 Climbing Indianapolis Center
05:55PM 40.5883 -84.8942 324° Northwest 396 456 22,100  Climbing Indianapolis Center
05:56PM 40.6592 -85.0133 308° West 381 438 22,000 -60 Descending Indianapolis Center
05:57PM 40.7269 -85.1203 310° West 383 441 22,000  Level Indianapolis Center
05:58PM 40.7931 -85.2283 309° West 381 438 22,000  Level Indianapolis Center
05:59PM 40.8594 -85.3364 309° West 381 438 22,000  Level Indianapolis Center
06:00PM 40.9403 -85.4669 309° West 383 441 22,000  Level Indianapolis Center
06:01PM 41.0064 -85.5767 309° West 383 441 22,000  Level Indianapolis Center
06:02PM 41.0733 -85.6861 309° West 384 442 22,000  Level Indianapolis Center
06:03PM 41.1342 -85.7978 306° West 380 437 22,000 -240 Level Indianapolis Center
06:04PM 41.1842 -85.9200 299° West 378 435 21,600 -960 Descending Indianapolis Center
06:05PM 41.2336 -86.0408 299° West 374 430 20,100 -1,500 Descending Indianapolis Center
06:06PM 41.2839 -86.1586 300° West 372 428 18,600 -1,680 Descending Indianapolis Center
06:07PM 41.3408 -86.3003 298° West 368 423 16,700 -1,680 Descending Indianapolis Center
06:08PM 41.3864 -86.4150 298° West 363 418 15,200 -1,560 Descending Indianapolis Center
06:10PM 41.4667 -86.5833 303° West 340 391 12,700 -1,200 Descending Chicago TRACON
06:11PM 41.5000 -86.7000 291° West 347 399 12,100 -360 Descending Chicago TRACON
06:12PM 41.5536 -86.7797 312° West 347 399 12,000 -60 Descending Chicago Center
06:13PM 41.6444 -86.7953 353° North 336 387 12,000  Level Chicago Center
06:14PM 41.7231 -86.8025 356° North 295 339 12,000 -240 Level Chicago Center
06:15PM 41.8153 -86.8181 353° North 283 326 11,600 -540 Descending Chicago Center
06:16PM 41.8856 -86.8547 339° North 278 320 11,000 -300 Descending Chicago Center
06:17PM 41.9183 -86.9403 297° West 261 300 11,000  Level Chicago Center
06:18PM 41.9489 -87.0278 295° West 261 300 11,000 -240 Level Chicago Center
06:19PM 41.9792 -87.1128 296° West 256 295 10,600 -720 Descending Chicago Center
06:20PM 42.0025 -87.1986 290° West 248 285 9,600 -1,020 Descending Chicago Center
06:21PM 42.0019 -87.2906 270° West 248 285 8,600 -1,080 Descending Chicago Center
06:22PM 42.0019 -87.4058 270° West 257 296 7,400 -840 Descending Chicago Center
06:23PM 42.0011 -87.4947 269° West 244 281 6,900 -1,020 Descending Chicago Center
06:24PM 42.0031 -87.5881 272° West 249 287 5,400 -1,500 Descending Chicago Center
06:25PM 42.0000 -87.6500 266° West 233 268 4,200 -1,320 Descending Chicago TRACON
06:26PM 42.0000 -87.7500 270° West 192 221 3,100 -960 Descending Chicago TRACON
06:27PM 42.0000 -87.8000 270° West 146 168 2,300 -780 Descending Chicago TRACON
06:28PM 42.0000 -87.8333 270° West 112 129 1,600 -660 Descending Chicago TRACON
06:29PM 42.0000 -87.8833 270° West 109 125 1,000 -600 Descending Chicago TRACON